createdAt,value
2022-07-30T07:05:54.021Z,26.4
2022-07-30T07:11:58.836Z,26.5
2022-07-30T07:17:56.893Z,26.4
2022-07-30T07:24:30.945Z,26.5
2022-07-30T07:31:08.586Z,26.6
2022-07-30T07:37:29.751Z,26.6
2022-07-30T07:43:28.713Z,26.6
2022-07-30T07:49:15.258Z,26.6
2022-07-30T07:55:13.807Z,26.6
2022-07-30T08:01:03.254Z,26.6
2022-07-30T08:06:48.197Z,26.8
2022-07-30T08:12:32.917Z,26.7
2022-07-30T08:19:01.080Z,26.8
2022-07-30T08:24:46.414Z,26.8
2022-07-30T08:30:58.014Z,26.8
2022-07-30T08:36:55.856Z,26.8
2022-07-30T08:42:35.989Z,26.8
2022-07-30T08:48:32.932Z,26.8
2022-07-30T08:54:12.634Z,26.9
2022-07-30T09:00:16.126Z,26.9
2022-07-30T09:06:04.321Z,26.9
2022-07-30T09:11:41.610Z,26.9
2022-07-30T09:17:18.246Z,27
2022-07-30T09:22:40.181Z,27
2022-07-30T09:28:18.701Z,27
2022-07-30T09:33:58.254Z,27
2022-07-30T09:39:36.008Z,27
2022-07-30T09:45:56.908Z,27
2022-07-30T10:07:25.098Z,27.1
2022-07-30T10:13:37.749Z,27.1
2022-07-30T10:19:39.473Z,27.1
2022-07-30T10:26:57.530Z,27.2
2022-07-30T10:34:30.287Z,27.2
2022-07-30T10:40:39.809Z,27.3
2022-07-30T10:46:55.863Z,27.3
2022-07-30T10:52:59.281Z,27.3
2022-07-30T10:59:05.262Z,27.3
2022-07-30T11:05:44.126Z,27.3
2022-07-30T11:12:22.734Z,27.4
2022-07-30T11:18:30.455Z,27.4
2022-07-30T11:25:03.569Z,27.4
2022-07-30T11:32:12.718Z,27.4
2022-07-30T11:38:41.650Z,27.4
